Jepson Prairie Reserve, California Weather observations

Data are for 10 minute period ending at time listed.
 Day   Time   Solar   Ave.   Ave.  Ave.  Vector  Max.   Baro.   Total    
  of    of     Rad.   Air    Rel.  Wind   Wind   Wind  Press.  Precip.   
Year   Day            Temp.  Hum.  Speed  Dir.   Gust                    
2015   (PST)  Kw/m2    F      %     mph   deg.    mph    mb.     in.     
-------------------------------------------------------------------------
  64   16:10   0.33   67.4    39    3.9    35     6.6   1023.4    0.00 
  64   16:20   0.29   67.7    36    2.8    44     3.9   1023.4    0.00 
  64   16:30   0.26   67.6    37    3.6    31     5.8   1023.4    0.00 
  64   16:40   0.23   67.7    37    2.7    50     4.1   1023.0    0.00 
  64   16:50   0.20   67.4    38    3.7    41     4.7   1023.0    0.00 
  64   17:00   0.17   67.0    44    4.3    52     5.6   1023.0    0.00 
  64   17:10   0.14   66.1    50    4.3    51     5.2   1023.0    0.00 
  64   17:20   0.11   65.4    52    4.3    63     5.0   1023.0    0.00 
  64   17:30   0.07   65.0    55    3.5    65     3.9   1023.0    0.00 
  64   17:40   0.05   64.7    53    2.6    58     3.2   1023.0    0.00 
  64   17:50   0.03   64.1    50    1.8    62     2.1   1023.4    0.00 
  64   18:00   0.01   63.2    54    1.0    67     1.7   1023.4    0.00 
  64   18:10   0.01   61.5    52    0.0    67     0.4   1023.4    0.00 
  64   18:20   0.00   60.1    53    0.0     0     0.0   1023.4    0.00 
  64   18:30   0.00   59.3    56    0.0     0     0.0   1023.4    0.00 
  64   18:40   0.00   59.4    58    0.3   335     0.9   1023.0    0.00 
  64   18:50   0.00   59.8    65    0.7   327     1.5   1023.0    0.00 
  64   19:00   0.00   59.7    62    2.3   338     2.6   1023.0    0.00 
  64   19:10   0.00   59.3    64    2.5   344     2.6   1023.0    0.00 
  64   19:20   0.00   57.5    64    2.1   318     2.6   1023.4    0.00 
  64   19:30   0.00   50.4    78    2.8   236     4.7   1023.4    0.00 
  64   19:40   0.00   47.9    88    6.1   247     8.6   1023.0    0.00 
  64   19:50   0.00   47.9    84    6.5   270     8.0   1023.0    0.00 
  64   20:00   0.00   50.3    76    5.7   276     6.5   1023.0    0.00 
  64   20:10   0.00   49.7    74    6.5   274     6.9   1023.0    0.00 
  64   20:20   0.00   48.8    74    3.8   285     6.2   1023.0    0.00 
  64   20:30   0.00   48.6    72    2.9   276     3.9   1023.0    0.00 
  64   20:40   0.00   46.2    77    3.3   244     6.2   1023.0    0.00 
  64   20:50   0.00   43.8    86    5.8   241     6.9   1023.0    0.00 
  64   21:00   0.00   44.1    85    6.4   248     7.7   1023.0    0.00 
  64   21:10   0.00   46.1    78    4.9   263     5.8   1023.0    0.00 
  64   21:20   0.00   47.9    72    3.9   273     5.6   1023.0    0.00 
  64   21:30   0.00   47.5    72    4.5   270     6.7   1023.0    0.00 
  64   21:40   0.00   46.2    75    7.2   256     8.3   1023.4    0.00 
  64   21:50   0.00   43.9    84    6.1   245     6.9   1023.4    0.00 
  64   22:00   0.00   43.4    84    5.9   246     6.6   1023.4    0.00 
  64   22:10   0.00   42.8    86    6.4   253     7.1   1023.4    0.00 
  64   22:20   0.00   41.8    90    6.1   253     6.7   1023.4    0.00 
  64   22:30   0.00   41.9    88    5.3   246     6.4   1023.4    0.00 
  64   22:40   0.00   42.0    88    7.9   240     8.9   1023.4    0.00 
  64   22:50   0.00   43.0    90    8.7   235     9.1   1023.4    0.00 
  64   23:00   0.00   43.1    91    8.2   236     8.7   1023.4    0.00 
  64   23:10   0.00   42.5    91    7.6   237     8.2   1023.4    0.00 
  64   23:20   0.00   42.7    89    7.5   238     8.0   1023.0    0.00 
  64   23:30   0.00   43.1    87    6.8   233     7.6   1023.0    0.00 
  64   23:40   0.00   43.1    88    6.4   225     6.9   1023.0    0.00 
  64   23:50   0.00   42.0    89    7.2   227     7.5   1023.0    0.00 
  65    0:00   0.00   41.1    91    6.6   227     6.9   1023.0    0.00 
  65    0:10   0.00   41.1    92    6.2   227     6.9   1023.0    0.00 
  65    0:20   0.00   41.7    92    6.2   225     6.6   1023.0    0.00 
  65    0:30   0.00   41.4    91    6.3   230     6.6   1023.0    0.00 
  65    0:40   0.00   40.9    92    5.9   223     6.5   1023.0    0.00 
  65    0:50   0.00   41.3    92    6.2   228     6.8   1023.0    0.00 
  65    1:00   0.00   41.0    92    6.5   226     7.1   1023.4    0.00 
  65    1:10   0.00   40.9    94    7.0   216     7.8   1023.0    0.00 
  65    1:20   0.00   40.0    94    6.9   212     7.7   1023.0    0.00 
  65    1:30   0.00   39.9    95    7.8   211     8.8   1023.4    0.00 
  65    1:40   0.00   40.2    94    7.8   217     9.1   1023.4    0.00 
  65    1:50   0.00   42.2    94    3.6   286     6.3   1023.4    0.00 
  65    2:00   0.00   44.9    87    2.6   325     5.0   1023.4    0.00 
  65    2:10   0.00   43.1    89    3.2    34     5.6   1023.4    0.00 
  65    2:20   0.00   42.1    94    4.1    21     5.8   1023.4    0.00 
  65    2:30   0.00   42.8    89    2.8    25     5.0   1023.4    0.00 
  65    2:40   0.00   40.3    91    1.9    53     2.9   1023.0    0.00 
  65    2:50   0.00   39.4    93    1.1    78     2.0   1023.0    0.00 
  65    3:00   0.00   38.9    95    1.6   150     2.2   1023.0    0.00 
  65    3:10   0.00   39.0    97    0.4   152     1.1   1023.0    0.00 
  65    3:20   0.00   37.9    95    1.7   181     3.9   1023.0    0.00 
  65    3:30   0.00   35.7    96    2.6   226     3.8   1023.0    0.00 
  65    3:40   0.00   36.6    98    1.4   248     3.1   1023.0    0.00 
  65    3:50   0.00   37.0    98    3.5   244     4.8   1023.0    0.00 
  65    4:00   0.00   36.1    98    4.4   239     5.6   1023.0    0.00 
  65    4:10   0.00   35.5    98    4.7   223     5.8   1023.0    0.00 
  65    4:20   0.00   35.6    99    5.8   219     6.1   1022.7    0.00 
  65    4:30   0.00   35.2    98    5.4   227     5.9   1023.0    0.00 
  65    4:40   0.00   35.9    99    4.6   239     5.8   1023.0    0.00 
  65    4:50   0.00   37.0    99    3.6   252     4.2   1023.0    0.00 
  65    5:00   0.00   39.0    99    2.8   247     3.2   1023.0    0.00 
  65    5:10   0.00   37.5    97    3.2   268     3.8   1023.0    0.00 
  65    5:20   0.00   36.5    97    3.9   261     5.7   1023.0    0.00 
  65    5:30   0.00   35.9    96    4.9   254     5.6   1023.0    0.00 
  65    5:40   0.00   36.0    98    3.6   259     4.7   1023.4    0.00 
  65    5:50   0.00   37.8    99    3.3   258     5.6   1023.4    0.00 
  65    6:00   0.00   37.3    97    4.3   247     5.5   1023.4    0.00 
  65    6:10   0.00   38.0    99    3.7   263     4.9   1023.4    0.00 
  65    6:20   0.00   36.8    96    3.7   250     5.0   1023.4    0.00 
  65    6:30   0.00   36.4    97    5.1   228     5.8   1023.4    0.00 
  65    6:40   0.01   37.2    96    5.7   220     6.0   1023.4    0.00 
  65    6:50   0.03   37.7    97    5.8   222     6.5   1023.4    0.00 
  65    7:00   0.05   37.5    97    5.8   219     6.8   1023.4    0.00 
  65    7:10   0.07   37.7    97    5.2   222     6.6   1023.4    0.00 
  65    7:20   0.11   38.8    96    3.7   250     4.7   1023.7    0.00 
  65    7:30   0.14   40.8    95    3.4   250     4.4   1023.7    0.00 
  65    7:40   0.17   43.1    94    3.8   275     4.5   1023.4    0.00 
  65    7:50   0.20   45.1    92    3.2   252     4.2   1023.7    0.00 
  65    8:00   0.23   47.1    89    1.8   259     2.4   1023.4    0.00 
  65    8:10   0.26   49.6    80    2.3   287     4.3   1023.4    0.00 
  65    8:20   0.30   51.2    68    3.3   317     5.5   1023.4    0.00 
  65    8:30   0.33   51.9    66    4.0   324     6.5   1023.7    0.00 
  65    8:40   0.36   52.1    66    4.1   333     6.7   1023.7    0.00 
  65    8:50   0.39   52.5    64    4.4   340     6.1   1023.7    0.00 
  65    9:00   0.42   53.2    64    5.1   333     7.4   1023.7    0.00 
  65    9:10   100.00  99999.0   99999  99999.0   99999   99999.0   99999.0   99999.00 
  65    9:20   0.47   54.3    61    4.7   314     6.7   1023.7    0.00 
  65    9:30   0.50   54.8    60    4.0   330     6.1   1023.7    0.00 
  65    9:40   0.53   55.5    61    3.5   343     4.7   1023.7    0.00 
  65    9:50   0.55   56.7    60    2.9   343     5.1   1023.7    0.00 
  65   10:00   0.58   57.5    60    3.4   340     5.8   1024.0    0.00 
  65   10:10   0.60   58.3    60    2.7   351     4.4   1024.0    0.00 
  65   10:20   0.62   60.2    59    2.1     3     6.1   1024.0    0.00 
  65   10:30   0.64   61.4    54    4.3   336     7.1   1024.0    0.00 
  65   10:40   0.66   62.7    53    4.3   342     6.7   1023.7    0.00 
  65   10:50   0.67   64.1    52    5.2   337     7.7   1023.7    0.00 
  65   11:00   0.69   64.6    49    5.7   339     9.6   1023.4    0.00 
  65   11:10   0.70   64.3    47    6.0   325     8.7   1023.4    0.00 
  65   11:20   0.71   64.8    46    4.2   326     7.7   1023.4    0.00 
  65   11:30   0.72   65.8    46    4.2   326     7.3   1023.4    0.00 
  65   11:40   0.73   66.7    44    3.3   323     7.1   1023.0    0.00 
  65   11:50   0.74   67.0    43    3.5   343     6.7   1023.0    0.00 
  65   12:00   0.75   67.6    42    4.2   340     7.9   1023.0    0.00 
  65   12:10   0.75   68.1    41    2.7   346     6.9   1022.7    0.00 
  65   12:20   0.75   67.7    38    5.2   318     9.9   1022.7    0.00 
  65   12:30   0.75   67.5    37    5.5   327     9.1   1022.4    0.00 
  65   12:40   0.75   68.0    36    3.8   346     7.3   1022.0    0.00 
  65   12:50   0.74   68.5    36    3.8   341     7.2   1022.0    0.00 
  65   13:00   0.74   68.8    36    2.9   341     7.7   1021.7    0.00 
  65   13:10   0.73   69.4    35    2.5   350     5.4   1021.7    0.00 
  65   13:20   0.72   70.0    34    3.5   344     7.0   1021.3    0.00 
  65   13:30   0.71   69.9    34    2.5   339     6.1   1021.0    0.00 
  65   13:40   0.69   70.7    36    4.5   356     9.9   1020.7    0.00 
  65   13:50   0.68   70.2    34    3.6   359     7.8   1020.7    0.00 
  65   14:00   0.66   71.2    33    2.1   315     7.7   1020.3    0.00 
  65   14:10   0.65   71.2    33    4.7   296     8.9   1020.3    0.00 
  65   14:20   0.62   71.3    33    3.5   303     6.8   1020.0    0.00 
  65   14:30   0.61   71.4    34    3.8   298     7.4   1020.0    0.00 
  65   14:40   0.58   72.1    34    3.1   312     6.5   1019.6    0.00 
  65   14:50   0.56   73.2    31    1.5   278     4.6   1019.6    0.00 
  65   15:00   0.53   72.7    35    8.0   232    11.2   1019.3    0.00 
  65   15:10   0.51   72.8    33    5.0   208     8.3   1019.3    0.00 
  65   15:20   0.48   72.6    38    5.6   219     8.0   1019.3    0.00 
  65   15:30   0.45   72.7    37    5.0   224     7.2   1019.3    0.00 
  65   15:40   0.42   72.6    35    5.5   222     7.7   1019.0    0.00 
  65   15:50   0.39   72.6    35    5.3   212     7.1   1019.0    0.00 
  65   16:00   0.36   72.6    36    5.9   213     8.6   1019.0    0.00 

Return to Jepson Prairie Reserve graphs page.


Western Regional Climate Center,wrcc@dri.edu